Time;durP1;ratioP1;P1;durP2;ratioP2;P2;SDS_P1;SDS_P2;PMS_P1;PMS_P2;Temp;Humidity;BMP_temperature;BMP_pressure;BME280_temperature;BME280_humidity;BME280_pressure;Samples;Min_cycle;Max_cycle;Signal;HPM_P1;HPM_P2
2023/12/16 00:00:32;;;;;;;0.20;0.20;;;;;;;5.74;71.15;100046.88;5100421;28;20193;-90
2023/12/16 00:02:57;;;;;;;0.10;0.10;;;;;;;5.70;72.02;100058.22;5098347;28;20185;-88
2023/12/16 00:05:22;;;;;;;0.93;0.33;;;;;;;5.63;71.31;100059.22;5115953;28;20179;-85
2023/12/16 00:07:48;;;;;;;0.10;0.10;;;;;;;5.59;71.41;100067.06;5116287;28;20178;-86
2023/12/16 00:10:14;;;;;;;0.10;0.10;;;;;;;5.57;71.32;100066.25;5114971;28;20527;-84
2023/12/16 00:12:39;;;;;;;0.20;0.20;;;;;;;5.58;71.48;100057.53;5116125;28;20195;-84
2023/12/16 00:15:08;;;;;;;0.13;0.13;;;;;;;5.53;71.38;100058.50;5115715;28;20262;-85
2023/12/16 00:17:33;;;;;;;0.20;0.20;;;;;;;5.50;71.87;100062.03;5115801;28;20176;-86
2023/12/16 00:19:59;;;;;;;0.10;0.10;;;;;;;5.41;71.88;100056.13;5115664;28;20256;-87
2023/12/16 00:22:25;;;;;;;0.20;0.20;;;;;;;5.49;71.70;100062.94;5115911;28;20167;-89
2023/12/16 00:24:50;;;;;;;0.20;0.20;;;;;;;5.49;72.09;100057.72;5115655;28;20179;-89
2023/12/16 00:27:16;;;;;;;0.10;0.10;;;;;;;5.49;72.21;100059.47;5097887;28;20185;-87
2023/12/16 00:29:41;;;;;;;0.10;0.10;;;;;;;5.50;71.98;100061.19;5115399;28;20210;-85
2023/12/16 00:32:07;;;;;;;0.40;0.20;;;;;;;5.44;71.67;100067.34;5115462;28;20300;-84
2023/12/16 00:34:33;;;;;;;0.17;0.17;;;;;;;5.51;71.94;100074.16;5098585;28;20199;-85
2023/12/16 00:37:00;;;;;;;0.20;0.20;;;;;;;5.52;71.87;100075.88;5115448;28;20177;-85
2023/12/16 00:39:25;;;;;;;0.20;0.20;;;;;;;5.51;72.18;100079.34;5115385;28;20202;-85
2023/12/16 00:41:51;;;;;;;0.40;0.30;;;;;;;5.52;72.57;100086.28;5115202;28;20187;-86
2023/12/16 00:44:16;;;;;;;0.20;0.20;;;;;;;5.55;71.30;100091.41;5097239;28;20584;-86
2023/12/16 00:46:42;;;;;;;0.50;0.20;;;;;;;5.53;71.81;100098.38;5115031;28;20179;-87
2023/12/16 00:49:08;;;;;;;1.43;0.80;;;;;;;5.44;72.19;100101.16;5115177;28;20269;-89
2023/12/16 00:51:33;;;;;;;1.40;0.43;;;;;;;5.35;72.58;100109.09;5097443;28;20630;-90
2023/12/16 00:53:59;;;;;;;0.30;0.30;;;;;;;5.32;72.89;100103.94;5115595;28;20249;-90
2023/12/16 00:56:24;;;;;;;0.37;0.30;;;;;;;5.39;72.69;100110.78;5115667;28;20177;-91
2023/12/16 00:58:50;;;;;;;0.60;0.60;;;;;;;5.42;72.06;100110.69;5097564;28;20255;-90
2023/12/16 01:01:15;;;;;;;0.70;0.43;;;;;;;5.23;72.57;100106.69;5097476;28;20619;-90
2023/12/16 01:03:41;;;;;;;0.90;0.30;;;;;;;5.29;73.02;100114.38;5097299;28;20181;-90
2023/12/16 01:06:06;;;;;;;1.17;0.53;;;;;;;5.28;72.71;100106.59;5115318;28;20177;-90
2023/12/16 01:08:33;;;;;;;0.50;0.30;;;;;;;5.17;72.93;100101.56;5097091;28;20648;-90
2023/12/16 01:10:59;;;;;;;0.47;0.30;;;;;;;5.13;72.90;100097.31;5115362;28;20556;-87
2023/12/16 01:13:24;;;;;;;1.07;0.40;;;;;;;5.17;72.69;100087.72;5114604;28;20227;-89
2023/12/16 01:15:50;;;;;;;0.50;0.30;;;;;;;5.06;73.81;100092.25;5096496;28;20630;-89
2023/12/16 01:18:16;;;;;;;0.20;0.20;;;;;;;5.05;73.54;100091.38;5114644;28;20169;-86
2023/12/16 01:20:42;;;;;;;0.20;0.20;;;;;;;5.02;73.46;100088.81;5114504;28;20584;-86
2023/12/16 01:23:07;;;;;;;0.20;0.20;;;;;;;4.96;73.63;100083.72;5114186;28;20176;-87
2023/12/16 01:25:33;;;;;;;0.20;0.20;;;;;;;4.98;73.97;100088.00;5114624;28;20258;-88
2023/12/16 01:27:58;;;;;;;0.20;0.20;;;;;;;4.96;74.38;100088.91;5096470;28;20237;-89
2023/12/16 01:30:24;;;;;;;0.20;0.20;;;;;;;4.97;74.47;100095.84;5096469;28;20630;-88
2023/12/16 01:32:51;;;;;;;0.20;0.20;;;;;;;5.07;73.60;100087.00;5114297;28;20199;-88
2023/12/16 01:35:17;;;;;;;0.30;0.20;;;;;;;5.05;74.20;100098.31;5114233;28;20181;-88
2023/12/16 01:37:43;;;;;;;0.10;0.10;;;;;;;5.01;74.38;100102.69;5096041;28;20207;-87
2023/12/16 01:40:09;;;;;;;0.20;0.20;;;;;;;5.02;73.90;100099.22;5096562;28;20193;-87
2023/12/16 01:42:34;;;;;;;0.20;0.20;;;;;;;5.06;74.13;100098.28;5114188;28;20196;-86
2023/12/16 01:44:59;;;;;;;0.27;0.20;;;;;;;5.19;73.70;100107.59;5114103;28;20270;-86
2023/12/16 01:47:26;;;;;;;0.20;0.20;;;;;;;5.07;74.24;100102.59;5096122;28;20643;-86
2023/12/16 01:49:52;;;;;;;0.20;0.20;;;;;;;5.18;74.20;100105.91;5096389;28;20699;-87
2023/12/16 01:52:18;;;;;;;0.10;0.10;;;;;;;5.22;73.64;100111.88;5113846;28;20199;-86
2023/12/16 01:54:44;;;;;;;0.20;0.20;;;;;;;5.25;73.78;100107.50;5095799;28;20253;-87
2023/12/16 01:57:10;;;;;;;0.13;0.13;;;;;;;5.23;73.47;100106.69;5113928;28;20260;-88
2023/12/16 01:59:36;;;;;;;0.20;0.20;;;;;;;5.19;73.74;100099.81;5096217;28;20183;-87
2023/12/16 02:02:03;;;;;;;0.20;0.20;;;;;;;5.19;73.75;100104.16;5096059;28;20197;-88
2023/12/16 02:04:28;;;;;;;0.30;0.30;;;;;;;5.03;73.62;100095.75;5096456;28;20179;-88
2023/12/16 02:06:54;;;;;;;0.20;0.20;;;;;;;5.12;73.97;100093.00;5095630;28;20189;-87
2023/12/16 02:09:21;;;;;;;0.60;0.20;;;;;;;5.17;73.73;100093.78;5096096;28;20179;-88
2023/12/16 02:11:47;;;;;;;0.20;0.20;;;;;;;5.08;73.55;100091.34;5113689;28;20734;-89
2023/12/16 02:14:12;;;;;;;0.20;0.20;;;;;;;5.13;74.19;100102.53;5095703;28;20203;-89
2023/12/16 02:16:38;;;;;;;0.20;0.20;;;;;;;5.20;73.87;100098.06;5095827;28;20244;-91
2023/12/16 02:19:13;;;;;;;0.50;0.23;;;;;;;5.17;74.21;100104.19;5095954;28;20179;-90
2023/12/16 02:21:39;;;;;;;0.53;0.40;;;;;;;5.08;74.12;100109.53;5114175;28;20189;-91
2023/12/16 02:24:05;;;;;;;0.43;0.30;;;;;;;5.04;73.77;100110.44;5096375;28;20186;-91
2023/12/16 02:26:30;;;;;;;0.43;0.20;;;;;;;5.07;74.58;100109.53;5114113;28;20180;-92
2023/12/16 02:28:58;;;;;;;0.77;0.50;;;;;;;5.05;74.41;100111.31;5096236;28;20550;-93
2023/12/16 02:31:24;;;;;;;0.30;0.30;;;;;;;5.13;74.03;100105.13;5097287;28;20520;-94
2023/12/16 02:33:49;;;;;;;0.20;0.20;;;;;;;4.94;74.71;100103.66;5098927;28;20237;-91
2023/12/16 02:36:15;;;;;;;0.63;0.37;;;;;;;4.85;75.48;100106.38;5118244;28;20176;-91
2023/12/16 02:38:56;;;;;;;0.20;0.20;;;;;;;5.01;74.97;100097.47;5100253;28;20221;-90
2023/12/16 02:45:12;;;;;;;0.10;0.10;;;;;;;4.91;74.70;100111.50;5080795;28;20187;-91
2023/12/16 02:48:06;;;;;;;0.20;0.20;;;;;;;4.74;75.63;100119.50;5073590;28;20312;-94
2023/12/16 02:50:47;;;;;;;0.20;0.20;;;;;;;4.82;75.24;100124.63;5099954;28;20195;-91
2023/12/16 02:53:31;;;;;;;0.20;0.20;;;;;;;4.77;75.88;100136.81;5111210;28;20299;-93
2023/12/16 02:56:57;;;;;;;0.40;0.30;;;;;;;4.83;74.99;100144.50;5100491;28;20216;-93
2023/12/16 03:13:21;;;;;;;;;;;;;;;;;;;;;
2023/12/16 03:19:13;;;;;;;0.20;0.20;;;;;;;4.82;76.29;100161.81;5051529;28;20585;-93
2023/12/16 03:22:13;;;;;;;0.20;0.20;;;;;;;5.00;75.91;100170.28;4974938;28;20647;-91
2023/12/16 03:24:38;;;;;;;0.37;0.20;;;;;;;4.93;75.45;100162.56;4972987;28;20180;-91
2023/12/16 03:27:04;;;;;;;0.20;0.20;;;;;;;4.82;75.40;100168.78;4988714;28;20189;-91
2023/12/16 03:29:31;;;;;;;0.30;0.27;;;;;;;4.94;75.43;100179.00;5035411;28;20532;-91
2023/12/16 03:31:57;;;;;;;0.30;0.20;;;;;;;4.78;76.27;100173.16;5053017;28;20684;-91
2023/12/16 03:34:22;;;;;;;0.50;0.30;;;;;;;4.78;75.71;100178.34;5035377;28;20217;-91
2023/12/16 03:36:48;;;;;;;0.10;0.10;;;;;;;4.65;76.07;100176.78;5035376;28;20196;-92
2023/12/16 03:39:19;;;;;;;0.10;0.10;;;;;;;4.60;76.44;100186.38;5035603;28;20652;-93
2023/12/16 03:42:08;;;;;;;0.20;0.20;;;;;;;4.54;76.96;100198.53;5036067;28;20186;-91
2023/12/16 03:51:35;;;;;;;;;;;;;;;;;;;;;
2023/12/16 03:54:01;;;;;;;2.30;1.10;;;;;;;4.66;76.66;100214.00;5052831;28;20217;-93
2023/12/16 03:56:27;;;;;;;0.77;0.57;;;;;;;4.63;76.43;100206.25;5033259;28;20613;-92
2023/12/16 03:58:52;;;;;;;0.77;0.50;;;;;;;4.42;76.97;100209.94;5022714;28;20183;-90
2023/12/16 04:01:18;;;;;;;0.63;0.50;;;;;;;4.60;76.69;100208.88;5032725;28;20183;-90
2023/12/16 04:03:43;;;;;;;0.80;0.60;;;;;;;4.55;77.15;100208.06;5027817;28;20190;-91
2023/12/16 04:06:11;;;;;;;1.53;0.50;;;;;;;4.57;77.11;100208.91;5015268;28;20580;-91
2023/12/16 04:08:36;;;;;;;0.40;0.37;;;;;;;4.68;76.57;100207.03;5032417;28;20194;-91
2023/12/16 04:11:02;;;;;;;2.20;1.20;;;;;;;4.67;77.04;100205.31;5032363;28;20182;-90
2023/12/16 04:13:27;;;;;;;0.90;0.40;;;;;;;4.76;76.81;100200.03;5032553;28;20664;-91
2023/12/16 04:15:53;;;;;;;1.27;0.60;;;;;;;4.63;77.02;100201.03;5031558;28;20210;-90
2023/12/16 04:18:19;;;;;;;0.60;0.40;;;;;;;4.50;77.76;100200.34;5032529;28;20175;-89
2023/12/16 04:20:44;;;;;;;0.90;0.50;;;;;;;4.60;77.45;100196.75;5077172;27;20190;-89
2023/12/16 04:23:10;;;;;;;0.63;0.60;;;;;;;4.50;78.24;100212.44;5136507;27;20174;-89
2023/12/16 04:25:35;;;;;;;0.60;0.60;;;;;;;4.63;77.41;100208.84;5098076;27;20186;-89
2023/12/16 04:28:02;;;;;;;1.17;0.50;;;;;;;4.56;77.76;100208.03;5032449;28;20178;-89
2023/12/16 04:30:28;;;;;;;1.43;0.40;;;;;;;4.58;77.48;100205.44;5030949;28;20199;-88
2023/12/16 04:32:53;;;;;;;0.57;0.53;;;;;;;4.46;77.48;100210.75;5021748;28;20576;-87
2023/12/16 04:35:19;;;;;;;0.30;0.30;;;;;;;4.42;77.72;100216.84;5030748;28;20175;-88
2023/12/16 04:37:44;;;;;;;0.90;0.40;;;;;;;4.51;78.08;100225.41;5031841;28;20185;-91
2023/12/16 04:40:10;;;;;;;0.80;0.47;;;;;;;4.57;77.74;100230.53;5031561;28;20197;-88
2023/12/16 04:42:35;;;;;;;0.20;0.20;;;;;;;4.56;77.93;100233.16;5031854;28;20175;-89
2023/12/16 04:45:01;;;;;;;1.13;0.40;;;;;;;4.43;78.22;100241.94;5031694;28;20705;-90
2023/12/16 04:47:26;;;;;;;0.50;0.40;;;;;;;4.56;77.87;100239.19;5031848;28;20265;-91
2023/12/16 04:49:54;;;;;;;0.27;0.27;;;;;;;4.39;78.27;100242.84;5031361;28;20242;-91
2023/12/16 04:52:22;;;;;;;0.40;0.23;;;;;;;4.48;78.11;100250.53;5026418;28;20178;-91
2023/12/16 04:54:48;;;;;;;0.77;0.50;;;;;;;4.41;78.88;100252.31;5100280;28;20178;-90
2023/12/16 04:57:14;;;;;;;0.63;0.50;;;;;;;4.17;79.59;100253.41;5014099;28;20582;-90
2023/12/16 04:59:39;;;;;;;0.30;0.30;;;;;;;4.20;79.86;100268.09;5014546;28;20747;-91
2023/12/16 05:02:05;;;;;;;0.20;0.20;;;;;;;4.27;79.24;100281.00;5025716;28;20190;-92
2023/12/16 05:04:30;;;;;;;0.70;0.40;;;;;;;4.30;79.47;100280.13;5031067;28;20183;-92
2023/12/16 05:06:56;;;;;;;0.50;0.40;;;;;;;4.35;78.94;100275.75;5027851;28;20192;-91
2023/12/16 05:09:22;;;;;;;0.70;0.40;;;;;;;4.46;78.89;100279.09;5014307;28;20649;-91
2023/12/16 05:11:47;;;;;;;0.40;0.30;;;;;;;4.32;78.67;100279.22;5014469;28;20178;-91
2023/12/16 05:14:13;;;;;;;0.50;0.50;;;;;;;4.20;79.59;100292.31;5020186;28;20632;-92
2023/12/16 05:16:38;;;;;;;0.57;0.40;;;;;;;4.33;79.63;100293.06;5030724;28;20281;-91
2023/12/16 05:19:04;;;;;;;0.30;0.30;;;;;;;4.52;78.66;100291.16;5030305;28;20179;-90
2023/12/16 05:21:30;;;;;;;1.67;1.10;;;;;;;4.59;77.69;100292.81;5030248;28;20189;-89
2023/12/16 05:23:55;;;;;;;0.70;0.50;;;;;;;4.52;78.13;100293.75;5030047;28;20687;-90
2023/12/16 05:26:25;;;;;;;1.23;0.70;;;;;;;4.31;79.06;100300.03;5031049;28;20190;-91
2023/12/16 05:28:54;;;;;;;1.07;0.70;;;;;;;4.41;78.77;100296.47;5031859;28;20171;-92
2023/12/16 05:32:29;;;;;;;;;;;;;;;;;;;;;
2023/12/16 05:35:02;;;;;;;0.53;0.30;;;;;;;4.45;78.62;100292.13;5049650;28;20198;-92
2023/12/16 05:37:34;;;;;;;0.60;0.40;;;;;;;4.35;78.99;100302.56;5030649;28;20206;-91
2023/12/16 05:39:59;;;;;;;2.70;0.60;;;;;;;4.33;79.28;100300.84;5030132;28;20179;-93
2023/12/16 05:42:25;;;;;;;0.93;0.30;;;;;;;4.32;78.75;100297.41;4994817;28;20245;-92
2023/12/16 05:44:50;;;;;;;0.23;0.23;;;;;;;4.43;78.61;100304.25;4995024;28;20248;-94
2023/12/16 05:47:17;;;;;;;0.40;0.30;;;;;;;4.44;78.64;100306.81;5001724;28;20184;-91
2023/12/16 05:49:43;;;;;;;0.40;0.30;;;;;;;4.39;78.81;100315.53;5013863;28;20174;-92
2023/12/16 05:52:09;;;;;;;0.83;0.50;;;;;;;4.27;79.37;100327.72;5013271;28;20187;-91
2023/12/16 05:54:34;;;;;;;0.87;0.40;;;;;;;4.30;79.58;100334.63;5012936;28;20174;-90
2023/12/16 05:57:00;;;;;;;0.30;0.30;;;;;;;4.31;79.32;100334.63;5015002;28;20193;-90
2023/12/16 05:59:25;;;;;;;0.53;0.40;;;;;;;4.46;78.63;100330.16;5030979;28;20624;-90
2023/12/16 06:01:51;;;;;;;1.00;0.40;;;;;;;4.34;78.83;100344.97;5029834;28;20629;-90
2023/12/16 06:04:16;;;;;;;0.37;0.30;;;;;;;4.43;79.07;100350.97;5029541;28;20227;-90
2023/12/16 06:06:42;;;;;;;1.30;0.50;;;;;;;4.39;79.46;100355.31;5029736;28;20269;-91
2023/12/16 06:09:07;;;;;;;1.23;0.40;;;;;;;4.37;78.51;100357.06;5029012;28;20697;-92
2023/12/16 06:11:33;;;;;;;0.77;0.50;;;;;;;4.41;79.34;100357.88;5029887;28;20179;-91
2023/12/16 06:13:59;;;;;;;2.47;0.77;;;;;;;4.39;79.05;100370.03;5029792;28;20671;-90
2023/12/16 06:16:24;;;;;;;0.40;0.30;;;;;;;4.31;79.53;100368.38;5029635;28;20179;-91
2023/12/16 06:18:50;;;;;;;1.37;0.90;;;;;;;4.45;79.35;100376.03;5029574;28;20546;-90
2023/12/16 06:21:16;;;;;;;0.30;0.30;;;;;;;4.39;79.21;100377.81;5030566;28;20179;-89
2023/12/16 06:23:42;;;;;;;1.40;0.60;;;;;;;4.28;79.51;100388.28;5029611;28;20182;-90
2023/12/16 06:26:08;;;;;;;1.03;0.60;;;;;;;4.44;79.24;100391.63;5029761;28;20261;-92
2023/12/16 06:28:34;;;;;;;0.67;0.50;;;;;;;4.42;79.05;100390.78;5029801;28;20281;-91
2023/12/16 06:30:59;;;;;;;0.47;0.33;;;;;;;4.39;78.94;100401.19;5030250;28;20636;-91
2023/12/16 06:33:25;;;;;;;0.57;0.40;;;;;;;4.34;79.63;100399.50;5029870;28;20194;-90
2023/12/16 06:35:51;;;;;;;1.73;0.83;;;;;;;4.45;78.92;100406.34;5029735;28;20208;-91
2023/12/16 06:38:16;;;;;;;1.00;0.40;;;;;;;4.38;79.86;100417.66;5031037;28;20243;-92
2023/12/16 06:40:42;;;;;;;0.77;0.40;;;;;;;4.48;79.33;100414.09;5029594;28;20273;-91
2023/12/16 06:43:08;;;;;;;0.80;0.50;;;;;;;4.48;78.97;100425.31;5029770;28;20205;-92
2023/12/16 06:45:38;;;;;;;0.50;0.40;;;;;;;4.58;78.77;100431.31;5029540;28;20697;-92
2023/12/16 06:48:04;;;;;;;0.57;0.50;;;;;;;4.48;78.74;100427.09;5030597;28;20175;-93
2023/12/16 06:50:32;;;;;;;0.83;0.57;;;;;;;4.23;79.91;100436.75;5029553;28;20246;-94
2023/12/16 06:53:00;;;;;;;0.23;0.23;;;;;;;4.30;79.58;100434.13;5029658;28;20217;-93
2023/12/16 06:55:25;;;;;;;0.40;0.40;;;;;;;4.39;79.01;100432.31;5029818;28;20187;-92
2023/12/16 06:58:09;;;;;;;0.57;0.40;;;;;;;4.35;79.63;100447.03;5030456;28;20175;-93
2023/12/16 07:00:34;;;;;;;0.60;0.40;;;;;;;4.35;79.46;100449.66;5029543;28;20179;-93
2023/12/16 07:03:07;;;;;;;0.70;0.50;;;;;;;4.42;79.07;100450.47;5029494;28;20170;-94
2023/12/16 07:05:34;;;;;;;0.77;0.50;;;;;;;4.53;78.97;100454.75;5029757;28;20182;-92
2023/12/16 07:08:22;;;;;;;;;;;;;;;;;;;;;
2023/12/16 07:11:51;;;;;;;0.57;0.40;;;;;;;4.77;77.70;100461.47;5012436;28;20614;-92
2023/12/16 07:14:16;;;;;;;1.37;0.70;;;;;;;4.57;78.11;100453.81;5029995;28;20573;-92
2023/12/16 07:16:42;;;;;;;1.30;0.70;;;;;;;4.73;78.37;100470.16;5030696;28;20261;-92
2023/12/16 07:19:08;;;;;;;2.63;0.60;;;;;;;4.82;77.40;100467.50;5030128;28;20178;-92
2023/12/16 07:21:33;;;;;;;0.83;0.40;;;;;;;4.81;77.23;100469.22;5032572;28;20198;-93
2023/12/16 07:23:59;;;;;;;0.70;0.50;;;;;;;4.83;77.31;100477.00;5032292;28;20178;-94
2023/12/16 07:26:24;;;;;;;0.60;0.50;;;;;;;4.81;77.29;100479.63;5032608;28;20292;-94
2023/12/16 07:28:50;;;;;;;0.40;0.40;;;;;;;4.69;77.71;100476.25;5032423;28;20601;-95
2023/12/16 07:31:26;;;;;;;0.30;0.30;;;;;;;4.54;78.16;100482.41;5033119;28;20636;-94
2023/12/16 07:33:51;;;;;;;0.40;0.37;;;;;;;4.71;77.51;100492.69;5032507;28;20271;-94
2023/12/16 07:36:17;;;;;;;1.03;0.60;;;;;;;4.73;76.97;100485.75;5033019;28;20186;-95
2023/12/16 07:38:42;;;;;;;1.67;0.80;;;;;;;4.60;77.79;100481.50;5032860;28;20186;-95
2023/12/16 07:41:08;;;;;;;0.70;0.30;;;;;;;4.79;77.76;100489.16;5032390;28;20265;-93
2023/12/16 07:43:33;;;;;;;0.97;0.60;;;;;;;4.73;77.06;100489.22;5035791;28;20177;-94
2023/12/16 07:45:59;;;;;;;0.90;0.60;;;;;;;4.60;77.78;100484.97;5035829;28;20175;-93
2023/12/16 07:48:24;;;;;;;1.73;0.77;;;;;;;4.62;78.14;100490.13;5035700;28;20189;-94
2023/12/16 07:50:53;;;;;;;0.70;0.50;;;;;;;4.65;77.95;100482.34;5035223;28;20612;-94
2023/12/16 07:53:22;;;;;;;0.77;0.57;;;;;;;4.42;78.88;100494.63;5022534;28;20210;-94
2023/12/16 07:55:49;;;;;;;3.20;1.20;;;;;;;4.50;78.60;100504.09;5015666;28;20182;-93
2023/12/16 07:58:15;;;;;;;7.63;3.60;;;;;;;4.55;79.03;100506.66;5033300;28;20639;-93
2023/12/16 08:00:41;;;;;;;2.83;0.83;;;;;;;4.40;78.97;100502.44;5046959;27;20572;-94
2023/12/16 08:03:12;;;;;;;2.10;1.10;;;;;;;4.44;78.69;100508.44;5119768;27;20191;-92
2023/12/16 08:05:40;;;;;;;11.17;3.23;;;;;;;4.49;78.49;100514.47;5024860;28;20178;-93
2023/12/16 08:08:06;;;;;;;6.83;2.07;;;;;;;4.48;78.59;100523.13;5015504;28;20271;-92
2023/12/16 08:10:31;;;;;;;1.37;0.60;;;;;;;4.35;79.18;100523.19;5015328;28;20302;-93
2023/12/16 08:12:57;;;;;;;4.23;1.80;;;;;;;4.46;79.56;100528.31;5030206;28;20270;-93
2023/12/16 08:15:22;;;;;;;1.23;0.80;;;;;;;4.44;79.27;100529.22;5035312;28;20270;-95
2023/12/16 08:18:12;;;;;;;1.93;1.00;;;;;;;4.47;79.94;100536.97;5016445;28;20612;-94
2023/12/16 08:41:15;;;;;;;3.43;2.40;;;;;;;4.78;78.01;100564.50;5088654;22;20259;-93
2023/12/16 08:51:35;;;;;;;1.77;1.13;;;;;;;5.10;76.45;100556.47;4862390;29;20395;-94
2023/12/16 08:54:01;;;;;;;2.80;1.57;;;;;;;5.05;76.25;100558.25;4888549;29;20234;-94
2023/12/16 09:03:19;;;;;;;1.33;1.03;;;;;;;5.20;76.13;100556.38;4917405;29;20207;-93
2023/12/16 09:05:45;;;;;;;1.77;1.53;;;;;;;5.07;76.27;100565.16;4901100;29;20212;-93
2023/12/16 09:08:10;;;;;;;2.20;1.13;;;;;;;5.09;75.86;100563.41;4901559;29;20245;-92
2023/12/16 09:10:58;;;;;;;6.53;2.73;;;;;;;5.14;76.09;100546.03;4986167;28;20194;-94
2023/12/16 09:13:44;;;;;;;5.57;2.23;;;;;;;5.23;75.44;100553.75;5036816;28;20269;-95
2023/12/16 09:16:29;;;;;;;3.60;1.30;;;;;;;5.14;75.47;100550.34;5050059;28;20191;-94
2023/12/16 09:18:54;;;;;;;4.80;2.43;;;;;;;4.97;76.70;100553.09;5074502;28;20165;-94
2023/12/16 09:25:11;;;;;;;3.60;1.30;;;;;;;5.20;75.94;100550.31;5062113;28;20214;-94
2023/12/16 09:28:02;;;;;;;2.53;1.17;;;;;;;5.25;75.54;100556.34;4947847;28;20188;-94
2023/12/16 09:30:31;;;;;;;2.67;0.90;;;;;;;5.28;75.39;100554.59;5037254;28;20177;-93
2023/12/16 09:33:06;;;;;;;3.80;1.40;;;;;;;5.29;74.86;100553.69;5036571;28;20197;-93
2023/12/16 09:36:27;;;;;;;1.37;1.00;;;;;;;5.26;74.96;100551.16;5036527;28;20615;-94
2023/12/16 09:45:03;;;;;;;2.40;0.80;;;;;;;5.20;76.06;100547.72;4973459;28;20235;-91
2023/12/16 09:47:30;;;;;;;3.43;1.60;;;;;;;5.13;76.08;100549.53;4942470;28;20653;-89
2023/12/16 09:50:15;;;;;;;6.47;2.97;;;;;;;5.37;75.07;100545.84;5006178;28;20276;-90
2023/12/16 09:55:47;;;;;;;4.03;1.40;;;;;;;5.43;74.57;100554.44;5015337;28;20189;-90
2023/12/16 09:58:15;;;;;;;4.17;1.67;;;;;;;5.33;75.09;100545.00;5051320;28;20189;-91
2023/12/16 10:00:49;;;;;;;3.00;1.30;;;;;;;5.26;75.77;100548.53;5035221;28;20193;-90
2023/12/16 10:03:16;;;;;;;3.53;1.70;;;;;;;5.43;75.20;100557.03;5055811;28;20181;-90
2023/12/16 10:05:45;;;;;;;3.17;1.67;;;;;;;5.39;74.80;100557.97;5055517;28;20181;-90
2023/12/16 10:08:19;;;;;;;2.53;1.57;;;;;;;5.45;74.30;100557.03;5055958;28;20184;-92
2023/12/16 10:14:54;;;;;;;2.13;1.23;;;;;;;5.28;75.64;100558.91;5011949;28;20280;-90
2023/12/16 10:17:49;;;;;;;2.00;1.00;;;;;;;5.30;75.22;100560.63;4995802;28;20312;-91
2023/12/16 10:24:02;;;;;;;3.43;1.63;;;;;;;5.25;75.04;100558.94;4999188;28;20244;-91
2023/12/16 10:26:30;;;;;;;10.87;5.03;;;;;;;5.27;75.45;100559.78;5042306;28;20193;-89
2023/12/16 10:28:58;;;;;;;8.73;3.30;;;;;;;5.24;75.09;100570.22;5056321;28;20212;-90
2023/12/16 10:31:24;;;;;;;4.97;2.20;;;;;;;5.22;75.12;100575.41;5055264;28;20186;-90
2023/12/16 10:33:51;;;;;;;7.53;4.30;;;;;;;5.25;75.74;100570.19;5073516;28;20284;-89
2023/12/16 10:36:17;;;;;;;6.13;3.97;;;;;;;5.47;74.67;100566.56;5072825;28;20200;-89
2023/12/16 10:38:43;;;;;;;3.60;2.10;;;;;;;5.20;75.16;100566.78;5072663;28;20759;-88
2023/12/16 10:41:09;;;;;;;2.63;1.40;;;;;;;5.04;75.96;100559.09;5072803;28;20252;-90
2023/12/16 10:43:35;;;;;;;3.13;1.50;;;;;;;5.08;76.00;100561.69;5072733;28;20234;-89
2023/12/16 10:46:06;;;;;;;3.07;1.60;;;;;;;5.20;76.34;100560.72;5064086;28;20182;-90
2023/12/16 10:48:34;;;;;;;2.93;1.33;;;;;;;5.17;76.14;100558.13;5052979;28;20189;-91
2023/12/16 10:51:04;;;;;;;3.43;1.70;;;;;;;4.97;75.88;100566.09;5058757;28;20176;-91
2023/12/16 10:53:43;;;;;;;4.90;2.53;;;;;;;5.10;76.05;100562.53;5055724;28;20201;-89
2023/12/16 10:56:17;;;;;;;3.50;2.00;;;;;;;5.23;75.73;100550.28;5076582;28;20567;-90
2023/12/16 10:58:51;;;;;;;2.13;1.10;;;;;;;5.25;75.69;100552.00;5077169;28;20162;-90
2023/12/16 11:01:18;;;;;;;3.03;1.50;;;;;;;5.08;75.79;100546.09;5076698;28;20223;-89
2023/12/16 11:03:48;;;;;;;3.63;1.90;;;;;;;4.95;75.87;100544.47;5076699;28;20206;-90
2023/12/16 11:06:21;;;;;;;2.20;1.40;;;;;;;5.23;76.00;100540.75;5076268;28;20188;-89
2023/12/16 11:08:47;;;;;;;2.40;1.43;;;;;;;5.18;75.47;100545.16;5058670;28;20223;-90
2023/12/16 11:11:17;;;;;;;1.80;1.07;;;;;;;5.25;75.57;100552.00;5075672;28;20177;-89
2023/12/16 11:13:44;;;;;;;9.30;3.67;;;;;;;5.24;75.50;100552.88;5058447;28;20204;-88
2023/12/16 11:16:19;;;;;;;5.87;2.50;;;;;;;5.38;75.76;100555.34;5076575;28;20525;-89
2023/12/16 11:18:49;;;;;;;4.43;2.37;;;;;;;5.47;74.94;100556.16;5058131;28;20684;-89
2023/12/16 11:21:19;;;;;;;4.47;1.93;;;;;;;5.47;75.26;100553.56;5076053;28;20186;-89
2023/12/16 11:23:48;;;;;;;3.00;1.20;;;;;;;5.63;75.01;100553.41;5058386;28;20192;-88
2023/12/16 11:26:16;;;;;;;4.03;2.40;;;;;;;5.62;74.37;100560.34;5076491;28;20203;-88
2023/12/16 11:28:41;;;;;;;2.77;1.80;;;;;;;5.65;74.93;100562.91;5076248;28;20215;-87
2023/12/16 11:31:10;;;;;;;4.10;2.10;;;;;;;5.59;74.13;100563.81;5058317;28;20630;-87
2023/12/16 11:33:48;;;;;;;3.27;1.70;;;;;;;5.52;74.70;100558.69;5075960;28;20205;-87
2023/12/16 11:36:14;;;;;;;3.50;1.80;;;;;;;5.71;75.18;100548.97;5075804;28;20266;-87
2023/12/16 11:38:48;;;;;;;10.10;4.53;;;;;;;5.78;74.66;100561.03;5057888;28;20625;-86
2023/12/16 11:41:35;;;;;;;8.13;3.57;;;;;;;5.73;73.72;100557.63;5076442;28;20168;-87
2023/12/16 11:44:01;;;;;;;3.63;1.70;;;;;;;5.56;74.14;100553.44;5075522;28;20192;-87
2023/12/16 11:46:42;;;;;;;7.57;4.83;;;;;;;5.75;74.21;100542.84;5057760;28;20554;-86
2023/12/16 11:49:10;;;;;;;4.13;3.00;;;;;;;5.82;73.86;100536.69;5057963;28;20311;-87
2023/12/16 11:51:38;;;;;;;11.63;3.70;;;;;;;5.76;73.41;100549.78;5057857;28;20566;-87
2023/12/16 11:54:05;;;;;;;9.77;5.73;;;;;;;5.74;73.43;100551.56;5075500;28;20668;-88
2023/12/16 11:56:33;;;;;;;11.50;5.40;;;;;;;5.75;73.72;100553.25;5058836;28;20291;-87
2023/12/16 11:58:59;;;;;;;6.43;3.07;;;;;;;5.80;73.58;100556.66;5057963;28;20616;-88
2023/12/16 12:01:29;;;;;;;3.90;2.13;;;;;;;5.55;74.78;100553.47;5057923;28;20177;-88
2023/12/16 12:03:55;;;;;;;4.33;1.67;;;;;;;5.81;73.93;100548.00;5058085;28;20608;-89
2023/12/16 12:06:43;;;;;;;4.27;2.03;;;;;;;5.89;73.28;100547.09;5057074;28;20188;-91
2023/12/16 12:09:19;;;;;;;3.30;1.63;;;;;;;5.88;73.08;100549.69;5058290;28;20607;-92
2023/12/16 12:11:48;;;;;;;4.87;1.60;;;;;;;5.93;72.30;100553.09;5058243;28;20180;-91
2023/12/16 12:14:48;;;;;;;;;;;;;;;;;;;;;
2023/12/16 12:17:14;;;;;;;4.50;1.83;;;;;;;5.87;72.77;100555.78;5060889;28;20176;-91
2023/12/16 12:19:43;;;;;;;6.23;3.40;;;;;;;5.87;73.32;100560.97;5075639;28;20273;-91
2023/12/16 12:22:08;;;;;;;3.50;2.07;;;;;;;5.84;73.00;100561.84;5057762;28;20188;-91
2023/12/16 12:24:34;;;;;;;2.10;1.23;;;;;;;6.00;73.05;100565.19;5057657;28;20631;-92
2023/12/16 12:27:00;;;;;;;2.83;1.17;;;;;;;5.95;73.02;100564.34;5074355;28;20538;-91
2023/12/16 12:29:25;;;;;;;3.20;1.70;;;;;;;5.88;73.13;100558.34;5075065;28;20234;-91
2023/12/16 12:31:52;;;;;;;5.10;1.93;;;;;;;5.98;72.59;100559.09;5057670;28;20176;-91
2023/12/16 12:34:22;;;;;;;2.17;1.57;;;;;;;5.83;72.73;100560.13;5057529;28;20229;-91
2023/12/16 12:36:53;;;;;;;6.53;1.57;;;;;;;5.76;73.19;100562.81;5057094;28;20208;-90
2023/12/16 12:39:20;;;;;;;2.67;1.23;;;;;;;5.82;73.10;100563.59;5075183;28;20232;-92
2023/12/16 12:42:00;;;;;;;10.60;5.57;;;;;;;5.94;73.39;100562.63;5057488;28;20322;-92
2023/12/16 12:44:25;;;;;;;2.30;1.10;;;;;;;5.97;72.65;100570.41;5057085;28;20211;-90
2023/12/16 12:46:51;;;;;;;4.63;1.33;;;;;;;5.99;73.33;100561.72;5074487;28;20192;-90
2023/12/16 12:49:18;;;;;;;2.47;1.50;;;;;;;5.90;73.44;100561.78;5057742;28;20181;-91
2023/12/16 12:51:51;;;;;;;2.83;1.13;;;;;;;5.84;73.64;100572.25;5073885;28;20184;-89
2023/12/16 12:54:20;;;;;;;2.13;1.30;;;;;;;5.76;73.71;100581.00;5074073;28;20261;-89
2023/12/16 12:56:46;;;;;;;1.73;1.03;;;;;;;5.76;73.88;100594.03;5074688;28;20184;-87
2023/12/16 12:59:11;;;;;;;4.87;1.50;;;;;;;5.69;74.13;100592.34;5056713;28;20188;-88
2023/12/16 13:01:37;;;;;;;4.20;1.80;;;;;;;5.70;74.24;100591.47;5074344;28;20184;-88
2023/12/16 13:04:03;;;;;;;2.50;1.20;;;;;;;5.59;74.71;100599.38;5074363;28;20172;-89
2023/12/16 13:06:29;;;;;;;3.23;1.17;;;;;;;5.61;74.73;100607.19;5074185;28;20186;-90
2023/12/16 13:08:55;;;;;;;4.17;2.03;;;;;;;5.73;74.39;100609.66;5074328;28;20187;-89
2023/12/16 13:11:21;;;;;;;5.27;1.60;;;;;;;5.86;73.75;100611.28;5074853;28;20219;-90